createdAt,value
2022-08-25T00:00:20.361Z,100471.16
2022-08-25T00:02:55.589Z,100475.34
2022-08-25T00:05:29.389Z,100475.34
2022-08-25T00:08:00.387Z,100477.03
2022-08-25T00:10:28.626Z,100473.88
2022-08-25T00:12:57.870Z,100477.00
2022-08-25T00:15:26.470Z,100482.34
2022-08-25T00:17:54.326Z,100473.56
2022-08-25T00:20:22.796Z,100476.44
2022-08-25T00:22:50.681Z,100478.53
2022-08-25T00:25:19.227Z,100481.84
2022-08-25T00:27:48.613Z,100474.75
2022-08-25T00:30:19.515Z,100473.88
2022-08-25T00:32:54.995Z,100474.53
2022-08-25T00:35:26.741Z,100480.16
2022-08-25T00:37:54.653Z,100477.84
2022-08-25T00:40:22.956Z,100471.31
2022-08-25T00:42:50.798Z,100476.28
2022-08-25T00:45:20.157Z,100470.63
2022-08-25T00:47:48.540Z,100476.63
2022-08-25T00:50:17.578Z,100473.88
2022-08-25T00:52:48.881Z,100473.41
2022-08-25T00:55:21.379Z,100476.53
2022-08-25T00:57:54.748Z,100483.38
2022-08-25T01:00:27.497Z,100472.06
2022-08-25T01:02:56.711Z,100477.44
2022-08-25T01:05:25.049Z,100477.63
2022-08-25T01:07:53.959Z,100466.97
2022-08-25T01:10:28.761Z,100470.50
2022-08-25T01:13:16.517Z,100473.22
2022-08-25T01:15:46.679Z,100482.59
2022-08-25T01:18:16.027Z,100480.25
2022-08-25T01:20:44.101Z,100484.66
2022-08-25T01:23:13.319Z,100483.53
2022-08-25T01:25:48.910Z,100490.78
2022-08-25T01:28:18.476Z,100490.19
2022-08-25T01:30:46.372Z,100483.22
2022-08-25T01:33:14.454Z,100485.41
2022-08-25T01:35:42.388Z,100485.53
2022-08-25T01:38:10.845Z,100481.22
2022-08-25T01:40:41.156Z,100482.63
2022-08-25T01:43:18.413Z,100481.16
2022-08-25T01:45:49.022Z,100479.19
2022-08-25T01:48:19.487Z,100485.63
2022-08-25T01:50:47.438Z,100492.09
2022-08-25T01:53:20.395Z,100487.84
2022-08-25T01:55:53.098Z,100488.69
2022-08-25T01:58:24.397Z,100483.97
2022-08-25T02:00:54.361Z,100489.44
2022-08-25T02:03:22.700Z,100486.66
2022-08-25T02:05:50.556Z,100489.38
2022-08-25T02:08:18.434Z,100491.06
2022-08-25T02:10:46.568Z,100483.78
2022-08-25T02:13:16.526Z,100476.22
2022-08-25T02:15:47.351Z,100478.94
2022-08-25T02:18:15.275Z,100480.50
2022-08-25T02:20:43.104Z,100480.31
2022-08-25T02:23:11.259Z,100479.66
2022-08-25T02:25:41.115Z,100477.94
2022-08-25T02:28:10.501Z,100480.13
2022-08-25T02:30:42.516Z,100476.94
2022-08-25T02:33:10.799Z,100476.75
2022-08-25T02:35:39.222Z,100474.34
2022-08-25T02:38:07.808Z,100474.16
2022-08-25T02:40:35.956Z,100469.19
2022-08-25T02:43:05.773Z,100468.38
2022-08-25T02:45:33.728Z,100474.59
2022-08-25T02:48:03.169Z,100469.19
2022-08-25T02:50:31.317Z,100466.50
2022-08-25T02:52:59.138Z,100462.94
2022-08-25T02:55:26.983Z,100460.44
2022-08-25T02:57:54.826Z,100457.94
2022-08-25T03:00:23.234Z,100461.81
2022-08-25T03:02:51.118Z,100465.94
2022-08-25T03:05:20.347Z,100463.59
2022-08-25T03:07:48.147Z,100466.47
2022-08-25T03:10:18.853Z,100462.06
2022-08-25T03:12:47.981Z,100463.28
2022-08-25T03:15:17.786Z,100464.88
2022-08-25T03:17:45.950Z,100471.97
2022-08-25T03:20:14.376Z,100458.81
2022-08-25T03:22:43.623Z,100460.59
2022-08-25T03:25:29.333Z,100467.03
2022-08-25T03:27:57.216Z,100471.94
2022-08-25T03:30:25.826Z,100469.25
2022-08-25T03:32:53.999Z,100479.88
2022-08-25T03:35:21.973Z,100474.97
2022-08-25T03:37:51.695Z,100467.66
2022-08-25T03:40:19.562Z,100473.09
2022-08-25T03:42:48.050Z,100463.31
2022-08-25T03:45:17.779Z,100458.63
2022-08-25T03:47:47.953Z,100453.75
2022-08-25T03:50:17.491Z,100447.44
2022-08-25T03:52:45.581Z,100445.06
2022-08-25T03:55:15.618Z,100437.72
2022-08-25T03:57:43.435Z,100436.88
2022-08-25T04:00:13.284Z,100434.66
2022-08-25T04:02:41.680Z,100438.00
2022-08-25T04:05:10.865Z,100447.97
2022-08-25T04:07:39.235Z,100441.72
2022-08-25T04:10:10.045Z,100451.88
2022-08-25T04:12:39.521Z,100452.44
2022-08-25T04:15:09.175Z,100451.97
2022-08-25T04:17:39.741Z,100452.31
2022-08-25T04:20:09.454Z,100456.06
2022-08-25T04:22:38.706Z,100463.34
2022-08-25T04:25:08.540Z,100464.81
2022-08-25T04:27:38.913Z,100466.88
2022-08-25T04:30:08.147Z,100465.19
2022-08-25T04:32:36.701Z,100473.28
2022-08-25T04:35:05.478Z,100473.66
2022-08-25T04:37:33.514Z,100469.47
2022-08-25T04:40:01.392Z,100478.59
2022-08-25T04:42:29.422Z,100465.63
2022-08-25T04:44:58.791Z,100455.72
2022-08-25T04:47:28.113Z,100459.31
2022-08-25T04:49:56.874Z,100459.47
2022-08-25T04:52:24.698Z,100461.34
2022-08-25T04:54:52.693Z,100454.75
2022-08-25T04:57:20.557Z,100455.06
2022-08-25T04:59:48.553Z,100461.97
2022-08-25T05:02:17.759Z,100466.16
2022-08-25T05:04:45.580Z,100462.44
2022-08-25T05:07:13.402Z,100463.09
2022-08-25T05:09:41.320Z,100469.16
2022-08-25T05:12:09.771Z,100466.47
2022-08-25T05:14:40.075Z,100461.88
2022-08-25T05:17:08.809Z,100454.81
2022-08-25T05:19:38.322Z,100459.19
2022-08-25T05:22:06.760Z,100448.19
2022-08-25T05:24:34.747Z,100449.03
2022-08-25T05:27:03.899Z,100444.75
2022-08-25T05:29:31.913Z,100443.84
2022-08-25T05:31:59.702Z,100455.81
2022-08-25T05:34:27.518Z,100451.31
2022-08-25T05:37:00.344Z,100453.28
2022-08-25T05:39:28.228Z,100456.09
2022-08-25T05:41:56.007Z,100462.66
2022-08-25T05:44:23.848Z,100452.94
2022-08-25T05:46:52.480Z,100456.75
2022-08-25T05:49:20.346Z,100447.53
2022-08-25T05:51:48.342Z,100448.47
2022-08-25T05:54:17.581Z,100454.47
2022-08-25T05:56:46.387Z,100442.50
2022-08-25T05:59:14.401Z,100440.31
2022-08-25T06:01:59.741Z,100429.59
2022-08-25T06:04:27.461Z,100437.59
2022-08-25T06:06:55.686Z,100431.03
2022-08-25T06:09:25.467Z,100438.00
2022-08-25T06:11:55.190Z,100433.53
2022-08-25T06:14:23.821Z,100440.47
2022-08-25T06:16:52.204Z,100434.31
2022-08-25T06:19:21.168Z,100435.03
2022-08-25T06:21:49.383Z,100434.25
2022-08-25T06:24:17.132Z,100431.41
2022-08-25T06:26:46.515Z,100430.25
2022-08-25T06:29:14.961Z,100434.88
2022-08-25T06:31:43.667Z,100427.63
2022-08-25T06:34:11.896Z,100434.97
2022-08-25T06:36:40.064Z,100431.88
2022-08-25T06:39:08.200Z,100442.56
2022-08-25T06:41:38.880Z,100440.97
2022-08-25T06:44:08.102Z,100438.31
2022-08-25T06:46:37.096Z,100429.81
2022-08-25T06:49:06.309Z,100422.75
2022-08-25T06:51:36.044Z,100416.72
2022-08-25T06:54:05.217Z,100413.22
2022-08-25T06:56:34.093Z,100413.03
2022-08-25T06:59:01.971Z,100408.28
2022-08-25T07:01:32.170Z,100412.09
2022-08-25T07:04:02.345Z,100418.19
2022-08-25T07:06:35.320Z,100417.16
2022-08-25T07:09:05.274Z,100413.47
2022-08-25T07:11:34.365Z,100413.28
2022-08-25T07:14:03.328Z,100411.00
2022-08-25T07:16:33.397Z,100400.56
2022-08-25T07:19:01.800Z,100401.88
2022-08-25T07:21:33.676Z,100412.09
2022-08-25T07:24:06.573Z,100408.97
2022-08-25T07:26:38.607Z,100409.84
2022-08-25T07:29:14.020Z,100394.56
2022-08-25T07:31:43.267Z,100403.13
2022-08-25T07:34:29.236Z,100407.50
2022-08-25T07:36:58.094Z,100408.31
2022-08-25T07:42:15.218Z,100408.59
2022-08-25T07:44:44.030Z,100402.81
2022-08-25T07:47:15.833Z,100402.75
2022-08-25T07:49:44.143Z,100404.50
2022-08-25T07:52:11.897Z,100403.28
2022-08-25T07:54:39.776Z,100402.28
2022-08-25T07:57:10.023Z,100408.19
2022-08-25T07:59:41.726Z,100417.00
2022-08-25T08:02:18.677Z,100409.19
2022-08-25T08:04:50.183Z,100412.09
2022-08-25T08:07:19.920Z,100406.38
2022-08-25T08:09:55.809Z,100403.31
2022-08-25T08:12:28.630Z,100406.22
2022-08-25T08:14:56.367Z,100410.41
2022-08-25T08:17:24.146Z,100411.53
2022-08-25T08:19:53.318Z,100414.16
2022-08-25T08:22:21.345Z,100403.63
2022-08-25T08:24:56.133Z,100413.13
2022-08-25T08:27:25.092Z,100405.47
2022-08-25T08:29:53.689Z,100410.97
2022-08-25T08:32:23.828Z,100404.47
2022-08-25T08:35:01.050Z,100406.22
2022-08-25T08:37:28.930Z,100410.66
2022-08-25T08:39:57.982Z,100408.22
2022-08-25T08:42:42.970Z,100410.91
2022-08-25T08:45:35.518Z,100403.19
2022-08-25T08:48:24.019Z,100400.88
2022-08-25T08:51:02.806Z,100406.53
2022-08-25T08:53:43.825Z,100397.16
2022-08-25T08:56:16.771Z,100402.31
2022-08-25T08:58:49.916Z,100400.88
2022-08-25T09:01:25.664Z,100393.34
2022-08-25T09:03:59.795Z,100393.91
2022-08-25T09:06:35.049Z,100386.16
2022-08-25T09:09:06.931Z,100384.75
2022-08-25T09:11:50.212Z,100399.53
2022-08-25T09:14:34.089Z,100392.13
2022-08-25T09:17:07.170Z,100387.59
2022-08-25T09:19:54.134Z,100380.88
2022-08-25T09:22:37.850Z,100380.72
2022-08-25T09:25:18.792Z,100380.28
2022-08-25T09:28:02.211Z,100368.72
2022-08-25T09:30:46.349Z,100355.94
2022-08-25T09:33:20.894Z,100361.00
2022-08-25T09:35:51.698Z,100347.63
2022-08-25T09:38:23.818Z,100346.31
2022-08-25T09:40:55.749Z,100338.75
2022-08-25T09:43:32.362Z,100342.97
2022-08-25T09:46:03.457Z,100343.56
2022-08-25T09:48:40.791Z,100340.06
2022-08-25T09:51:18.159Z,100340.97
2022-08-25T09:53:52.869Z,100334.72
2022-08-25T09:56:22.965Z,100329.53
2022-08-25T09:58:51.902Z,100329.28
2022-08-25T10:01:22.589Z,100329.31
2022-08-25T10:04:00.867Z,100316.34
2022-08-25T10:06:34.534Z,100321.88
2022-08-25T10:09:06.986Z,100317.44
2022-08-25T10:11:40.519Z,100322.97
2022-08-25T10:14:19.327Z,100311.09
2022-08-25T10:16:49.479Z,100316.34
2022-08-25T10:19:26.506Z,100321.84
2022-08-25T10:22:07.457Z,100311.06
2022-08-25T10:24:38.330Z,100309.63
2022-08-25T10:27:20.458Z,100304.09
2022-08-25T10:30:16.097Z,100296.97
2022-08-25T10:33:09.660Z,100299.97
2022-08-25T10:35:49.125Z,100299.88
2022-08-25T10:38:36.154Z,100310.03
2022-08-25T10:41:19.871Z,100301.06
2022-08-25T10:43:54.351Z,100299.34
2022-08-25T10:46:31.684Z,100287.13
2022-08-25T10:49:05.747Z,100293.72
2022-08-25T10:51:51.149Z,100288.94
2022-08-25T10:54:30.332Z,100283.28
2022-08-25T10:57:08.965Z,100280.50
2022-08-25T10:59:52.222Z,100278.94
2022-08-25T11:02:54.075Z,100273.84
2022-08-25T11:05:28.214Z,100263.91
2022-08-25T11:08:07.232Z,100266.22
2022-08-25T11:10:42.814Z,100256.88
2022-08-25T11:13:17.974Z,100260.16
2022-08-25T11:16:13.720Z,100238.84
2022-08-25T11:18:51.174Z,100244.09
2022-08-25T11:21:24.465Z,100243.56
2022-08-25T11:23:56.515Z,100239.91
2022-08-25T11:26:36.649Z,100241.25
2022-08-25T11:29:13.470Z,100236.53
2022-08-25T11:31:47.321Z,100233.28
2022-08-25T11:34:19.541Z,100225.44
2022-08-25T11:36:53.100Z,100238.47
2022-08-25T11:39:34.678Z,100221.25
2022-08-25T11:42:13.850Z,100235.75
2022-08-25T11:44:54.987Z,100231.25
2022-08-25T11:47:40.819Z,100233.78
2022-08-25T11:50:25.939Z,100224.03
2022-08-25T11:53:01.277Z,100216.28
2022-08-25T11:55:47.159Z,100211.16
2022-08-25T11:58:31.716Z,100214.22
2022-08-25T12:01:02.843Z,100210.63
2022-08-25T12:03:53.386Z,100204.56
2022-08-25T12:06:26.122Z,100210.25
2022-08-25T12:09:19.286Z,100204.13
2022-08-25T12:11:52.316Z,100193.25
2022-08-25T12:14:42.430Z,100200.09
2022-08-25T12:17:37.791Z,100197.16
2022-08-25T12:20:08.240Z,100188.41
2022-08-25T12:22:58.575Z,100189.50
2022-08-25T12:25:47.416Z,100180.94
2022-08-25T12:28:51.626Z,100187.00
2022-08-25T12:31:30.181Z,100189.72
2022-08-25T12:34:16.807Z,100176.53
2022-08-25T12:36:58.996Z,100170.00
2022-08-25T12:39:33.205Z,100171.78
2022-08-25T12:42:04.475Z,100179.06
2022-08-25T12:44:40.297Z,100176.00
2022-08-25T12:47:14.818Z,100183.22
2022-08-25T12:49:44.071Z,100175.69
2022-08-25T12:52:15.982Z,100175.78
2022-08-25T12:54:50.111Z,100178.69
2022-08-25T12:57:33.570Z,100172.63
2022-08-25T13:00:08.185Z,100174.06
2022-08-25T13:03:02.804Z,100167.47
2022-08-25T13:05:56.744Z,100161.41
2022-08-25T13:08:51.704Z,100165.56
2022-08-25T13:11:25.718Z,100161.94
2022-08-25T13:13:58.687Z,100150.31
2022-08-25T13:16:29.986Z,100145.59
2022-08-25T13:19:01.573Z,100148.97
2022-08-25T13:21:35.144Z,100143.31
2022-08-25T13:24:10.478Z,100143.41
2022-08-25T13:26:47.192Z,100131.22
2022-08-25T13:29:21.455Z,100131.84
2022-08-25T13:31:55.363Z,100126.88
2022-08-25T13:34:34.231Z,100123.38
2022-08-25T13:37:27.627Z,100121.13
2022-08-25T13:40:10.220Z,100112.34
2022-08-25T13:42:42.400Z,100109.66
2022-08-25T13:45:16.528Z,100114.28
2022-08-25T13:47:46.139Z,100103.53
2022-08-25T13:50:29.883Z,100112.22
2022-08-25T13:53:02.763Z,100106.03
2022-08-25T13:55:38.408Z,100110.25
2022-08-25T13:58:24.895Z,100100.03
2022-08-25T14:01:22.850Z,100099.09
2022-08-25T14:04:31.997Z,100100.72
2022-08-25T14:07:19.269Z,100102.88
2022-08-25T14:09:51.671Z,100098.22
2022-08-25T14:12:35.683Z,100097.56
2022-08-25T14:15:08.176Z,100093.25
2022-08-25T14:17:40.318Z,100090.44
2022-08-25T14:20:22.034Z,100100.19
2022-08-25T14:22:52.654Z,100089.19
2022-08-25T14:25:23.134Z,100090.72
2022-08-25T14:28:13.687Z,100089.09
2022-08-25T14:30:46.388Z,100088.31
2022-08-25T14:33:16.204Z,100091.50
2022-08-25T14:35:47.551Z,100080.66
2022-08-25T14:38:16.272Z,100080.59
2022-08-25T14:40:46.576Z,100083.72
2022-08-25T14:43:15.883Z,100080.13
2022-08-25T14:45:48.281Z,100071.34
2022-08-25T14:48:25.423Z,100067.22
2022-08-25T14:50:55.725Z,100073.94
2022-08-25T14:53:23.510Z,100067.03
2022-08-25T14:55:55.699Z,100063.13
2022-08-25T14:58:33.944Z,100055.78
2022-08-25T15:01:03.513Z,100050.03
2022-08-25T15:03:34.174Z,100048.72
2022-08-25T15:06:03.342Z,100056.63
2022-08-25T15:08:49.873Z,100050.97
2022-08-25T15:11:19.184Z,100043.81
2022-08-25T15:13:49.627Z,100039.72
2022-08-25T15:16:23.531Z,100048.91
2022-08-25T15:18:52.182Z,100040.31
2022-08-25T15:21:21.542Z,100040.13
2022-08-25T15:23:51.051Z,100042.63
2022-08-25T15:26:25.999Z,100038.50
2022-08-25T15:28:53.903Z,100042.75
2022-08-25T15:31:23.562Z,100040.53
2022-08-25T15:33:51.620Z,100030.69
2022-08-25T15:36:25.071Z,100029.91
2022-08-25T15:38:53.545Z,100021.38
2022-08-25T15:41:22.441Z,100022.53
2022-08-25T15:43:56.671Z,100022.25
2022-08-25T15:46:26.200Z,100018.69
2022-08-25T15:51:27.014Z,100019.66
2022-08-25T15:53:55.533Z,100022.53
2022-08-25T15:56:26.641Z,100011.94
2022-08-25T15:58:56.448Z,100011.38
2022-08-25T16:01:27.145Z,100013.31
2022-08-25T16:03:55.304Z,100017.81
2022-08-25T16:06:24.257Z,100012.84
2022-08-25T16:08:53.715Z,100007.38
2022-08-25T16:11:24.503Z,100008.22
2022-08-25T16:13:53.373Z,100001.91
2022-08-25T16:16:25.188Z,100002.78
2022-08-25T16:18:53.350Z,99998.38
2022-08-25T16:21:25.501Z,100000.97
2022-08-25T16:23:55.213Z,99994.09
2022-08-25T16:26:23.248Z,99994.94
2022-08-25T16:28:51.470Z,99998.25
2022-08-25T16:31:19.761Z,99993.56
2022-08-25T16:33:49.918Z,99995.78
2022-08-25T16:36:20.793Z,99995.00
2022-08-25T16:38:50.422Z,100005.75
2022-08-25T16:41:20.568Z,99995.00
2022-08-25T16:43:49.016Z,100000.56
2022-08-25T16:46:20.340Z,99998.34
2022-08-25T16:48:50.467Z,99992.88
2022-08-25T16:51:22.609Z,100005.28
2022-08-25T16:54:10.948Z,99996.16
2022-08-25T16:56:42.198Z,100003.91
2022-08-25T16:59:12.270Z,99997.56
2022-08-25T17:01:42.918Z,99997.28
2022-08-25T17:04:13.489Z,99998.13
2022-08-25T17:06:49.387Z,99990.16
2022-08-25T17:09:22.908Z,99996.47
2022-08-25T17:11:56.947Z,99996.22
2022-08-25T17:14:25.610Z,99994.28
2022-08-25T17:16:55.049Z,99997.03
2022-08-25T17:19:25.922Z,99982.66
2022-08-25T17:21:55.115Z,99987.34
2022-08-25T17:24:29.374Z,99984.06
2022-08-25T17:27:01.361Z,99995.03
2022-08-25T17:29:30.045Z,99993.69
2022-08-25T17:31:58.473Z,99989.56
2022-08-25T17:34:29.538Z,99992.28
2022-08-25T17:36:58.537Z,99994.47
2022-08-25T17:39:27.639Z,100001.06
2022-08-25T17:41:56.205Z,99998.84
2022-08-25T17:44:24.032Z,100001.63
2022-08-25T17:46:52.007Z,99994.16
2022-08-25T17:49:20.135Z,99994.38
2022-08-25T17:51:49.268Z,100004.03
2022-08-25T17:54:18.288Z,99992.44
2022-08-25T17:56:46.112Z,99990.75
2022-08-25T17:59:13.996Z,99994.59
2022-08-25T18:01:41.842Z,99997.59
2022-08-25T18:04:17.330Z,99995.06
2022-08-25T18:06:46.530Z,99993.69
2022-08-25T18:09:16.053Z,100004.66
2022-08-25T18:11:43.886Z,100005.44
2022-08-25T18:14:12.631Z,100007.06
2022-08-25T18:16:40.827Z,100003.72
2022-08-25T18:19:10.772Z,100006.72
2022-08-25T18:21:39.320Z,100003.63
2022-08-25T18:24:07.993Z,100002.19
2022-08-25T18:26:37.445Z,100004.31
2022-08-25T18:29:05.607Z,100008.06
2022-08-25T18:31:33.454Z,100009.63
2022-08-25T18:34:02.230Z,100013.09
2022-08-25T18:36:30.088Z,100011.09
2022-08-25T18:39:15.480Z,100008.03
2022-08-25T18:41:45.789Z,100011.78
2022-08-25T18:44:15.565Z,100014.72
2022-08-25T18:46:43.681Z,100014.59
2022-08-25T18:49:15.859Z,100015.84
2022-08-25T18:51:44.684Z,100017.38
2022-08-25T18:54:22.858Z,100015.09
2022-08-25T18:56:53.403Z,100013.06
2022-08-25T18:59:23.613Z,100016.25
2022-08-25T19:01:52.891Z,100007.63
2022-08-25T19:04:20.871Z,100015.97
2022-08-25T19:06:56.271Z,100018.31
2022-08-25T19:09:24.079Z,100011.59
2022-08-25T19:11:54.688Z,100014.78
2022-08-25T19:14:23.240Z,100014.69
2022-08-25T19:16:54.706Z,100014.63
2022-08-25T19:19:23.851Z,100019.44
2022-08-25T19:21:52.091Z,100022.59
2022-08-25T19:24:19.988Z,100018.69
2022-08-25T19:26:50.467Z,100022.19
2022-08-25T19:29:23.720Z,100029.16
2022-08-25T19:31:53.261Z,100022.16
2022-08-25T19:34:28.009Z,100027.47
2022-08-25T19:37:00.223Z,100020.16
2022-08-25T19:39:30.594Z,100018.41
2022-08-25T19:41:59.023Z,100022.97
2022-08-25T19:44:29.617Z,100028.22
2022-08-25T19:46:58.047Z,100033.03
2022-08-25T19:49:31.569Z,100034.25
2022-08-25T19:52:00.294Z,100026.16
2022-08-25T19:54:30.875Z,100033.47
2022-08-25T19:56:59.282Z,100034.19
2022-08-25T19:59:40.825Z,100037.19
2022-08-25T20:02:15.319Z,100041.22
2022-08-25T20:04:49.294Z,100045.25
2022-08-25T20:07:19.082Z,100046.81
2022-08-25T20:09:47.286Z,100043.72
2022-08-25T20:14:50.922Z,100043.50
2022-08-25T20:17:24.305Z,100044.22
2022-08-25T20:19:55.447Z,100037.59
2022-08-25T20:22:26.327Z,100036.41
2022-08-25T20:24:56.240Z,100046.63
2022-08-25T20:27:32.220Z,100037.47
2022-08-25T20:30:03.014Z,100048.91
2022-08-25T20:32:32.521Z,100037.25
2022-08-25T20:35:00.558Z,100044.25
2022-08-25T20:37:28.583Z,100041.75
2022-08-25T20:39:56.460Z,100043.31
2022-08-25T20:42:25.019Z,100042.94
2022-08-25T20:44:53.587Z,100042.84
2022-08-25T20:47:22.794Z,100043.53
2022-08-25T20:49:50.609Z,100037.47
2022-08-25T20:52:19.662Z,100035.44
2022-08-25T20:54:50.360Z,100050.41
2022-08-25T20:57:19.383Z,100040.22
2022-08-25T20:59:54.725Z,100040.44
2022-08-25T21:02:24.843Z,100037.56
2022-08-25T21:04:53.516Z,100046.69
2022-08-25T21:07:23.680Z,100048.25
2022-08-25T21:09:51.936Z,100047.28
2022-08-25T21:12:20.138Z,100048.22
2022-08-25T21:14:48.213Z,100057.13
2022-08-25T21:17:19.367Z,100050.69
2022-08-25T21:22:21.527Z,100046.63
2022-08-25T21:24:51.439Z,100050.66
2022-08-25T21:27:19.743Z,100054.91
2022-08-25T21:29:54.450Z,100049.94
2022-08-25T21:32:23.321Z,100055.00
2022-08-25T21:34:54.604Z,100050.47
2022-08-25T21:37:23.059Z,100055.53
2022-08-25T21:39:51.295Z,100054.13
2022-08-25T21:42:19.505Z,100053.75
2022-08-25T21:44:47.446Z,100052.53
2022-08-25T21:47:15.854Z,100049.44
2022-08-25T21:49:49.419Z,100045.88
2022-08-25T21:52:18.716Z,100048.94
2022-08-25T21:54:46.536Z,100051.50
2022-08-25T21:57:14.615Z,100054.94
2022-08-25T21:59:43.512Z,100046.22
2022-08-25T22:02:13.779Z,100048.56
2022-08-25T22:04:42.149Z,100048.81
2022-08-25T22:07:11.669Z,100049.63
2022-08-25T22:09:41.547Z,100051.28
2022-08-25T22:12:10.393Z,100050.44
2022-08-25T22:14:39.360Z,100042.75
2022-08-25T22:17:12.265Z,100043.78
2022-08-25T22:19:45.514Z,100045.91
2022-08-25T22:22:13.419Z,100042.44
2022-08-25T22:24:43.703Z,100049.00
2022-08-25T22:27:15.814Z,100044.91
2022-08-25T22:29:45.177Z,100038.03
2022-08-25T22:32:13.562Z,100050.44
2022-08-25T22:34:43.676Z,100041.88
2022-08-25T22:37:11.973Z,100041.50
2022-08-25T22:39:40.429Z,100041.72
2022-08-25T22:42:09.859Z,100045.03
2022-08-25T22:44:39.213Z,100039.59
2022-08-25T22:47:09.323Z,100047.31
2022-08-25T22:49:40.174Z,100045.63
2022-08-25T22:52:09.248Z,100043.59
2022-08-25T22:54:39.447Z,100050.56
2022-08-25T22:57:07.604Z,100046.41
2022-08-25T22:59:36.778Z,100045.19
2022-08-25T23:02:04.815Z,100046.69
2022-08-25T23:04:32.703Z,100043.59
2022-08-25T23:07:00.513Z,100043.19
2022-08-25T23:09:28.444Z,100039.25
2022-08-25T23:11:56.413Z,100042.81
2022-08-25T23:14:26.177Z,100036.75
2022-08-25T23:16:56.507Z,100039.94
2022-08-25T23:19:24.522Z,100043.91
2022-08-25T23:22:10.573Z,100037.22
2022-08-25T23:24:42.681Z,100035.19
2022-08-25T23:27:11.473Z,100032.44
2022-08-25T23:29:41.152Z,100033.53
2022-08-25T23:32:14.069Z,100026.63
2022-08-25T23:34:43.872Z,100023.50
2022-08-25T23:37:16.170Z,100027.50
2022-08-25T23:39:49.544Z,100026.91
2022-08-25T23:42:18.338Z,100027.34
2022-08-25T23:44:46.214Z,100021.31
2022-08-25T23:47:15.382Z,100028.84
2022-08-25T23:49:43.232Z,100026.34
2022-08-25T23:52:11.073Z,100033.50
2022-08-25T23:54:39.329Z,100034.59
2022-08-25T23:57:07.698Z,100029.84
2022-08-25T23:59:37.408Z,100024.81
